Time;durP1;ratioP1;P1;durP2;ratioP2;P2;SDS_P1;SDS_P2;PMS_P1;PMS_P2;Temp;Humidity;BMP_temperature;BMP_pressure;BME280_temperature;BME280_humidity;BME280_pressure;Samples;Min_cycle;Max_cycle;Signal;HPM_P1;HPM_P2
2023/04/18 00:02:15;;;;;;;10.68;3.92;;;20.60;60.50;;;;;;5015814;28;20104;-71
2023/04/18 00:04:45;;;;;;;14.50;4.40;;;20.60;60.30;;;;;;5017890;28;20059;-71
2023/04/18 00:07:15;;;;;;;22.92;4.53;;;20.60;60.40;;;;;;5032715;28;20485;-71
2023/04/18 00:09:41;;;;;;;7.88;4.10;;;20.60;60.30;;;;;;5033247;28;20061;-71
2023/04/18 00:12:07;;;;;;;10.70;4.57;;;20.60;60.30;;;;;;5034797;28;20491;-72
2023/04/18 00:14:36;;;;;;;10.65;4.20;;;20.60;60.30;;;;;;5034278;28;20029;-71
2023/04/18 00:17:01;;;;;;;12.43;3.95;;;20.50;60.30;;;;;;5026315;28;20041;-71
2023/04/18 00:19:27;;;;;;;12.35;4.32;;;20.60;60.30;;;;;;5029397;28;20021;-71
2023/04/18 00:21:53;;;;;;;10.40;4.15;;;20.50;60.10;;;;;;5033403;28;20372;-72
2023/04/18 00:24:19;;;;;;;10.48;4.20;;;20.60;60.30;;;;;;5023648;28;20029;-72
2023/04/18 00:26:45;;;;;;;12.15;4.03;;;20.50;60.30;;;;;;5030314;28;20112;-71
2023/04/18 00:29:10;;;;;;;12.27;4.00;;;20.50;60.20;;;;;;5002357;28;20039;-71
2023/04/18 00:31:36;;;;;;;9.73;3.85;;;20.60;60.40;;;;;;5017716;28;20027;-71
2023/04/18 00:34:02;;;;;;;11.15;4.30;;;20.50;60.30;;;;;;5033627;28;20536;-71
2023/04/18 00:36:28;;;;;;;8.82;3.88;;;20.50;60.30;;;;;;5032916;28;20060;-71
2023/04/18 00:38:53;;;;;;;7.22;4.15;;;20.50;60.30;;;;;;5032815;28;20017;-70
2023/04/18 00:41:21;;;;;;;5.82;3.67;;;20.50;60.20;;;;;;4996908;28;20030;-71
2023/04/18 00:43:46;;;;;;;9.95;4.32;;;20.50;60.30;;;;;;5009833;28;20033;-70
2023/04/18 00:46:12;;;;;;;9.15;3.78;;;20.50;60.30;;;;;;5014746;28;20522;-70
2023/04/18 00:48:38;;;;;;;13.73;4.25;;;20.50;60.30;;;;;;5018556;28;20377;-69
2023/04/18 00:51:06;;;;;;;11.00;4.28;;;20.50;60.30;;;;;;5022418;28;20411;-69
2023/04/18 00:53:32;;;;;;;9.27;3.55;;;20.50;60.30;;;;;;5002807;28;20037;-70
2023/04/18 00:55:58;;;;;;;8.32;3.95;;;20.50;60.20;;;;;;5029985;28;20124;-70
2023/04/18 00:58:25;;;;;;;8.75;3.85;;;20.50;60.20;;;;;;5020661;28;20100;-70
2023/04/18 01:00:51;;;;;;;8.70;3.55;;;20.50;60.20;;;;;;5015967;28;20558;-70
2023/04/18 01:03:17;;;;;;;8.25;3.95;;;20.50;60.20;;;;;;5031178;28;20092;-70
2023/04/18 01:05:44;;;;;;;6.30;3.53;;;20.50;60.20;;;;;;5033423;28;20021;-70
2023/04/18 01:08:10;;;;;;;6.28;4.15;;;20.50;60.10;;;;;;5031595;28;20452;-70
2023/04/18 01:10:36;;;;;;;7.70;3.80;;;20.50;60.10;;;;;;5024029;28;20105;-70
2023/04/18 01:13:10;;;;;;;11.88;4.53;;;20.50;59.80;;;;;;5008594;28;20105;-70
2023/04/18 01:15:38;;;;;;;8.27;3.90;;;20.50;59.90;;;;;;5022977;28;20029;-70
2023/04/18 01:18:06;;;;;;;8.70;3.67;;;20.50;59.90;;;;;;5020689;28;20025;-70
2023/04/18 01:20:34;;;;;;;11.90;3.85;;;20.50;59.90;;;;;;5015718;28;20025;-70
2023/04/18 01:23:00;;;;;;;7.68;4.13;;;20.50;60.10;;;;;;5024046;28;20036;-70
2023/04/18 01:25:25;;;;;;;9.15;3.70;;;20.50;60.10;;;;;;5014874;28;20025;-70
2023/04/18 01:27:57;;;;;;;6.85;3.70;;;20.50;59.80;;;;;;5022766;28;20029;-70
2023/04/18 01:30:25;;;;;;;6.15;3.58;;;20.50;59.90;;;;;;5022808;28;20044;-70
2023/04/18 01:32:51;;;;;;;8.50;3.85;;;20.50;60.10;;;;;;5016736;28;20029;-70
2023/04/18 01:35:17;;;;;;;8.13;4.50;;;20.40;59.80;;;;;;5029151;28;20017;-70
2023/04/18 01:37:43;;;;;;;8.18;3.90;;;20.40;59.70;;;;;;5033086;28;20040;-70
2023/04/18 01:40:10;;;;;;;7.97;4.05;;;20.40;59.80;;;;;;5033011;28;20030;-70
2023/04/18 01:42:36;;;;;;;5.78;3.60;;;20.40;59.90;;;;;;5015523;28;20029;-70
2023/04/18 01:45:04;;;;;;;6.68;3.63;;;20.40;59.60;;;;;;5015007;28;20513;-70
2023/04/18 01:47:30;;;;;;;7.60;3.67;;;20.40;59.80;;;;;;5015329;28;20041;-70
2023/04/18 01:49:56;;;;;;;6.72;3.45;;;20.40;59.90;;;;;;5033779;28;20032;-70
2023/04/18 01:52:21;;;;;;;9.95;3.95;;;20.40;59.90;;;;;;5044035;28;20033;-70
2023/04/18 01:54:49;;;;;;;6.80;3.58;;;20.40;59.90;;;;;;5032659;28;20109;-70
2023/04/18 01:57:15;;;;;;;6.13;3.70;;;20.40;59.90;;;;;;5020497;28;20026;-70
2023/04/18 01:59:41;;;;;;;7.57;3.53;;;20.40;60.00;;;;;;5007387;28;20498;-70
2023/04/18 02:02:07;;;;;;;7.85;3.72;;;20.40;60.20;;;;;;5021179;28;20080;-70
2023/04/18 02:04:34;;;;;;;5.20;3.60;;;20.40;60.00;;;;;;5021245;28;20048;-70
2023/04/18 02:07:00;;;;;;;6.70;4.20;;;20.40;59.90;;;;;;5031391;28;20029;-70
2023/04/18 02:09:26;;;;;;;6.80;3.50;;;20.40;59.50;;;;;;5017944;28;20083;-70
2023/04/18 02:11:54;;;;;;;7.13;3.72;;;20.40;60.00;;;;;;5022896;28;20031;-70
2023/04/18 02:14:20;;;;;;;6.38;3.80;;;20.40;59.50;;;;;;5014312;28;20026;-70
2023/04/18 02:16:45;;;;;;;10.13;3.83;;;20.40;59.60;;;;;;5029092;28;20026;-70
2023/04/18 02:19:11;;;;;;;7.53;3.60;;;20.40;59.40;;;;;;5020510;28;20014;-70
2023/04/18 02:21:37;;;;;;;6.10;3.70;;;20.40;59.70;;;;;;5019116;28;20029;-70
2023/04/18 02:24:03;;;;;;;6.78;3.60;;;20.40;59.10;;;;;;5020728;28;20030;-70
2023/04/18 02:26:29;;;;;;;6.43;3.60;;;20.40;59.70;;;;;;5018257;28;20036;-70
2023/04/18 02:28:57;;;;;;;6.43;3.65;;;20.40;59.70;;;;;;5021938;28;20083;-70
2023/04/18 02:31:23;;;;;;;5.78;3.58;;;20.40;59.90;;;;;;4993772;28;20579;-70
2023/04/18 02:33:49;;;;;;;7.50;3.53;;;20.40;59.80;;;;;;5005630;28;20029;-70
2023/04/18 02:36:14;;;;;;;5.45;3.55;;;20.30;59.80;;;;;;5028508;28;20110;-70
2023/04/18 02:38:41;;;;;;;8.43;3.88;;;20.40;59.90;;;;;;5013209;28;20475;-70
2023/04/18 02:41:07;;;;;;;5.88;3.70;;;20.40;59.90;;;;;;5036801;28;20041;-70
2023/04/18 02:43:33;;;;;;;8.50;3.80;;;20.30;59.80;;;;;;5018938;28;20056;-71
2023/04/18 02:46:01;;;;;;;8.02;3.92;;;20.30;59.80;;;;;;5020341;28;20107;-70
2023/04/18 02:48:27;;;;;;;5.20;3.30;;;20.30;59.60;;;;;;5021440;28;20061;-70
2023/04/18 02:51:04;;;;;;;6.05;3.60;;;20.30;59.60;;;;;;5021156;28;20048;-70
2023/04/18 02:53:32;;;;;;;5.57;3.78;;;20.40;59.60;;;;;;5020834;28;20033;-71
2023/04/18 02:55:58;;;;;;;6.80;3.42;;;20.30;59.70;;;;;;4996942;28;20033;-70
2023/04/18 02:58:34;;;;;;;6.38;3.72;;;20.40;59.90;;;;;;5020327;28;20026;-69
2023/04/18 03:01:26;;;;;;;5.65;3.33;;;20.40;59.90;;;;;;4991910;28;20048;-70
2023/04/18 03:04:11;;;;;;;6.10;3.53;;;20.40;59.90;;;;;;5019063;28;20057;-70
2023/04/18 03:06:41;;;;;;;5.63;3.80;;;20.40;59.80;;;;;;4981514;28;20127;-70
2023/04/18 03:09:07;;;;;;;5.80;3.58;;;20.30;59.70;;;;;;5003199;28;20171;-71
2023/04/18 03:11:38;;;;;;;5.65;3.60;;;20.40;59.70;;;;;;4987290;28;20083;-71
2023/04/18 03:14:04;;;;;;;8.75;4.07;;;20.40;59.70;;;;;;5020800;28;20037;-71
2023/04/18 03:16:40;;;;;;;5.43;3.22;;;20.30;59.70;;;;;;5020457;28;20037;-70
2023/04/18 03:19:09;;;;;;;6.43;3.53;;;20.30;60.20;;;;;;5003332;28;20041;-71
2023/04/18 03:21:35;;;;;;;7.10;3.60;;;20.40;59.70;;;;;;4995049;28;20022;-71
2023/04/18 03:24:01;;;;;;;8.13;3.75;;;20.30;59.70;;;;;;5027715;28;20037;-70
2023/04/18 03:26:27;;;;;;;6.60;3.67;;;20.30;59.60;;;;;;5024270;28;20499;-71
2023/04/18 03:28:55;;;;;;;5.50;3.50;;;20.30;59.70;;;;;;5020749;28;20053;-71
2023/04/18 03:31:21;;;;;;;6.63;3.47;;;20.30;59.50;;;;;;5000558;28;20069;-71
2023/04/18 03:33:47;;;;;;;9.40;3.67;;;20.30;59.50;;;;;;5012618;28;20033;-71
2023/04/18 03:36:17;;;;;;;8.20;3.70;;;20.30;59.70;;;;;;5025283;28;20024;-71
2023/04/18 03:38:44;;;;;;;4.72;3.33;;;20.30;59.70;;;;;;4999759;28;20045;-71
2023/04/18 03:41:09;;;;;;;7.05;4.00;;;20.30;59.70;;;;;;5024842;28;20105;-70
2023/04/18 03:43:37;;;;;;;4.82;3.30;;;20.30;59.60;;;;;;5024635;28;20032;-70
2023/04/18 03:46:03;;;;;;;5.90;3.47;;;20.30;59.70;;;;;;5018236;28;20041;-70
2023/04/18 03:48:29;;;;;;;5.65;3.45;;;20.30;59.70;;;;;;5004593;28;20064;-70
2023/04/18 03:50:59;;;;;;;8.30;3.60;;;20.30;59.50;;;;;;5004405;28;20033;-71
2023/04/18 03:53:24;;;;;;;6.45;3.42;;;20.30;59.60;;;;;;5016692;28;20030;-70
2023/04/18 03:55:50;;;;;;;8.73;4.25;;;20.30;59.50;;;;;;5034491;28;20454;-71
2023/04/18 03:58:22;;;;;;;5.50;3.30;;;20.30;59.40;;;;;;4999466;28;20088;-70
2023/04/18 04:00:50;;;;;;;8.25;3.72;;;20.30;59.40;;;;;;5031797;28;20026;-70
2023/04/18 04:03:17;;;;;;;5.82;3.97;;;20.30;59.50;;;;;;5014588;28;20045;-70
2023/04/18 04:05:45;;;;;;;5.82;3.80;;;20.30;59.40;;;;;;5014256;28;20076;-70
2023/04/18 04:08:14;;;;;;;7.20;3.55;;;20.30;59.50;;;;;;5019187;28;20145;-70
2023/04/18 04:10:40;;;;;;;6.03;3.70;;;20.30;59.40;;;;;;5023213;28;20076;-70
2023/04/18 04:13:05;;;;;;;6.72;3.28;;;20.30;59.30;;;;;;5006448;28;20057;-70
2023/04/18 04:15:37;;;;;;;5.95;3.47;;;20.40;59.50;;;;;;5023864;28;20539;-70
2023/04/18 04:18:05;;;;;;;5.38;3.42;;;20.30;59.40;;;;;;5020497;28;20045;-70
2023/04/18 04:20:33;;;;;;;7.03;3.80;;;20.40;59.50;;;;;;5002717;28;20084;-70
2023/04/18 04:23:08;;;;;;;8.38;3.72;;;20.40;59.50;;;;;;5026375;28;20108;-71
2023/04/18 04:25:37;;;;;;;8.75;3.60;;;20.40;59.40;;;;;;5018864;28;20034;-71
2023/04/18 04:28:08;;;;;;;6.57;3.65;;;20.40;59.30;;;;;;5031956;28;20456;-71
2023/04/18 04:30:42;;;;;;;6.22;3.50;;;20.40;59.10;;;;;;4999124;28;20080;-70
2023/04/18 04:33:09;;;;;;;5.55;3.67;;;20.30;59.20;;;;;;5031266;28;20021;-70
2023/04/18 04:35:35;;;;;;;5.22;3.25;;;20.40;59.20;;;;;;5028256;28;20108;-71
2023/04/18 04:38:03;;;;;;;6.45;3.90;;;20.40;59.30;;;;;;5016582;28;20152;-70
2023/04/18 04:40:36;;;;;;;5.80;3.60;;;20.30;59.30;;;;;;5023632;28;20510;-70
2023/04/18 04:43:11;;;;;;;7.22;3.65;;;20.30;59.20;;;;;;5023535;28;20025;-71
2023/04/18 04:45:40;;;;;;;7.03;3.75;;;20.30;59.10;;;;;;5023366;28;20025;-71
2023/04/18 04:48:09;;;;;;;5.72;3.60;;;20.30;59.80;;;;;;5031143;28;20536;-71
2023/04/18 04:50:37;;;;;;;;;;;20.40;59.30;;;;;;5023844;28;20312;-70
2023/04/18 04:53:04;;;;;;;9.05;3.90;;;20.30;59.10;;;;;;5031794;28;19909;-70
2023/04/18 04:55:31;;;;;;;6.15;3.40;;;20.30;59.20;;;;;;5012067;28;20052;-70
2023/04/18 04:57:57;;;;;;;5.10;3.22;;;20.40;59.10;;;;;;5010366;28;20119;-70
2023/04/18 05:00:46;;;;;;;6.95;3.50;;;20.40;59.20;;;;;;5031181;28;20064;-70
2023/04/18 05:03:11;;;;;;;6.47;3.50;;;20.30;59.30;;;;;;5023302;28;20045;-70
2023/04/18 05:05:37;;;;;;;5.00;3.22;;;20.30;59.00;;;;;;5027320;28;20062;-70
2023/04/18 05:08:03;;;;;;;9.73;4.15;;;20.40;59.30;;;;;;5017765;28;20032;-70
2023/04/18 05:10:29;;;;;;;6.03;3.55;;;20.40;59.10;;;;;;5020368;28;20084;-70
2023/04/18 05:12:55;;;;;;;7.15;3.78;;;20.30;58.90;;;;;;5026908;28;20022;-70
2023/04/18 05:15:22;;;;;;;10.27;3.90;;;20.40;58.90;;;;;;5024367;28;20033;-71
2023/04/18 05:17:48;;;;;;;5.50;3.30;;;20.30;59.70;;;;;;5032634;28;20024;-71
2023/04/18 05:20:14;;;;;;;5.22;3.67;;;20.40;59.00;;;;;;5027006;28;20036;-71
2023/04/18 05:22:40;;;;;;;6.63;3.60;;;20.40;58.80;;;;;;5032397;28;20029;-71
2023/04/18 05:25:07;;;;;;;6.18;4.10;;;20.40;58.70;;;;;;5030560;28;20091;-71
2023/04/18 05:27:32;;;;;;;8.65;4.05;;;20.40;58.80;;;;;;5033313;28;20033;-71
2023/04/18 05:29:58;;;;;;;7.13;4.00;;;20.40;58.90;;;;;;5034356;28;20502;-71
2023/04/18 05:32:24;;;;;;;7.13;3.42;;;20.40;58.70;;;;;;5032451;28;20083;-71
2023/04/18 05:34:50;;;;;;;6.22;3.40;;;20.40;59.00;;;;;;5011053;28;20117;-71
2023/04/18 05:37:16;;;;;;;8.10;3.63;;;20.40;59.00;;;;;;5022442;28;20028;-71
2023/04/18 05:39:42;;;;;;;5.82;3.53;;;20.30;58.70;;;;;;5000338;28;20491;-71
2023/04/18 05:42:07;;;;;;;6.88;3.88;;;20.40;59.00;;;;;;5029608;28;20360;-71
2023/04/18 05:44:33;;;;;;;7.18;4.18;;;20.40;59.00;;;;;;5031634;28;20079;-71
2023/04/18 05:46:59;;;;;;;5.18;3.83;;;20.40;58.80;;;;;;5030459;28;20477;-71
2023/04/18 05:49:25;;;;;;;6.95;4.25;;;20.30;58.90;;;;;;4989994;28;20117;-71
2023/04/18 05:51:51;;;;;;;8.93;3.83;;;20.40;58.90;;;;;;5009995;28;20470;-70
2023/04/18 05:54:20;;;;;;;5.70;3.60;;;20.30;58.50;;;;;;5030022;28;20025;-70
2023/04/18 05:56:46;;;;;;;5.22;3.47;;;20.40;58.60;;;;;;5030341;28;20021;-71
2023/04/18 05:59:12;;;;;;;6.00;3.90;;;20.40;58.60;;;;;;5032611;28;20022;-70
2023/04/18 06:01:38;;;;;;;6.45;3.78;;;20.30;58.50;;;;;;5020425;28;20030;-69
2023/04/18 06:04:04;;;;;;;8.98;3.42;;;20.40;58.70;;;;;;5014139;28;20563;-70
2023/04/18 06:06:30;;;;;;;6.72;3.80;;;20.40;58.70;;;;;;5021384;28;20510;-70
2023/04/18 06:08:56;;;;;;;6.25;4.20;;;20.40;58.60;;;;;;5028893;28;20029;-70
2023/04/18 06:11:22;;;;;;;7.85;4.28;;;20.40;58.50;;;;;;5012426;28;20030;-70
2023/04/18 06:13:48;;;;;;;6.60;4.20;;;20.40;58.40;;;;;;5026900;28;20037;-71
2023/04/18 06:16:13;;;;;;;7.70;3.80;;;20.40;58.50;;;;;;5030994;28;20018;-70
2023/04/18 06:18:39;;;;;;;7.57;4.20;;;20.40;58.60;;;;;;5032227;28;20100;-70
2023/04/18 06:21:05;;;;;;;8.43;3.80;;;20.40;58.80;;;;;;5009826;28;20028;-70
2023/04/18 06:23:31;;;;;;;6.07;4.18;;;20.40;58.70;;;;;;5014706;28;20025;-70
2023/04/18 06:25:57;;;;;;;9.43;4.25;;;20.40;58.70;;;;;;5029256;28;20033;-70
2023/04/18 06:28:23;;;;;;;10.32;3.88;;;20.40;58.60;;;;;;5006164;28;20420;-71
2023/04/18 06:30:49;;;;;;;7.85;4.38;;;20.40;58.60;;;;;;5032377;28;20360;-70
2023/04/18 06:33:15;;;;;;;8.75;4.30;;;20.40;58.90;;;;;;5027354;28;20021;-70
2023/04/18 06:35:41;;;;;;;9.57;4.32;;;20.40;58.90;;;;;;5030890;28;20517;-70
2023/04/18 06:38:07;;;;;;;8.80;3.70;;;20.30;58.90;;;;;;5024693;28;20053;-70
2023/04/18 06:40:33;;;;;;;9.60;4.68;;;20.40;59.10;;;;;;4986096;28;20101;-70
2023/04/18 06:42:59;;;;;;;7.38;3.55;;;20.40;58.90;;;;;;5028269;28;20539;-70
2023/04/18 06:45:25;;;;;;;6.63;3.60;;;20.40;59.30;;;;;;5009515;28;20042;-70
2023/04/18 06:47:51;;;;;;;8.43;3.45;;;20.40;59.60;;;;;;5026564;28;20052;-70
2023/04/18 06:50:17;;;;;;;7.70;3.78;;;20.40;59.20;;;;;;5024216;28;20538;-71
2023/04/18 06:52:44;;;;;;;8.25;4.22;;;20.40;59.20;;;;;;5020012;28;20112;-71
2023/04/18 06:55:12;;;;;;;9.05;4.35;;;20.40;58.80;;;;;;5027164;28;20026;-71
2023/04/18 06:57:39;;;;;;;6.40;4.10;;;20.40;58.60;;;;;;5029392;28;20017;-71
2023/04/18 07:00:05;;;;;;;8.70;4.68;;;20.40;58.80;;;;;;5031366;28;20476;-72
2023/04/18 07:02:33;;;;;;;10.30;4.25;;;20.40;59.00;;;;;;5031493;28;20498;-71
2023/04/18 07:04:59;;;;;;;9.45;4.57;;;20.40;59.30;;;;;;5016451;28;20040;-71
2023/04/18 07:07:25;;;;;;;7.45;4.07;;;20.40;59.00;;;;;;5010837;28;20383;-71
2023/04/18 07:09:51;;;;;;;10.23;4.18;;;20.40;59.20;;;;;;5031266;28;20029;-71
2023/04/18 07:12:17;;;;;;;7.35;4.47;;;20.40;58.80;;;;;;5032039;28;20030;-71
2023/04/18 07:14:43;;;;;;;9.13;3.95;;;20.40;58.90;;;;;;5031063;28;20079;-71
2023/04/18 07:17:09;;;;;;;10.43;4.22;;;20.40;59.10;;;;;;5011263;28;20022;-72
2023/04/18 07:19:34;;;;;;;9.38;3.70;;;20.50;59.00;;;;;;5031135;28;20021;-72
2023/04/18 07:22:00;;;;;;;6.88;3.60;;;20.40;60.10;;;;;;5031359;28;20033;-72
2023/04/18 07:24:26;;;;;;;9.65;3.65;;;20.50;59.30;;;;;;5031036;28;20033;-72
2023/04/18 07:26:52;;;;;;;11.40;3.70;;;20.50;60.50;;;;;;5013811;28;20128;-72
2023/04/18 07:29:18;;;;;;;11.90;3.88;;;20.50;61.50;;;;;;5031378;28;20514;-72
2023/04/18 07:31:45;;;;;;;15.23;4.50;;;20.50;61.70;;;;;;5029733;28;20495;-70
2023/04/18 07:34:12;;;;;;;14.75;5.03;;;20.50;62.90;;;;;;5025136;28;20083;-69
2023/04/18 07:36:39;;;;;;;10.88;5.30;;;20.50;62.20;;;;;;5022474;28;20029;-70
2023/04/18 07:39:06;;;;;;;21.35;4.85;;;20.50;61.20;;;;;;5023969;28;20479;-70
2023/04/18 07:41:32;;;;;;;9.35;4.28;;;20.60;60.90;;;;;;5010803;28;20025;-72
2023/04/18 07:43:59;;;;;;;18.58;4.82;;;20.60;61.30;;;;;;5019064;28;20177;-70
2023/04/18 07:46:25;;;;;;;20.20;4.80;;;20.70;62.20;;;;;;4989625;28;20041;-72
2023/04/18 07:48:51;;;;;;;19.55;4.88;;;20.70;62.00;;;;;;5026037;28;20033;-75
2023/04/18 07:51:17;;;;;;;15.85;4.50;;;20.80;61.90;;;;;;5014567;28;20034;-73
2023/04/18 07:53:43;;;;;;;23.20;4.50;;;20.70;62.30;;;;;;5017336;28;20826;-71
2023/04/18 07:56:11;;;;;;;14.30;4.55;;;20.80;63.30;;;;;;5014074;28;20029;-72
2023/04/18 07:58:37;;;;;;;31.30;4.78;;;20.80;63.50;;;;;;5012290;28;20487;-72
2023/04/18 08:01:03;;;;;;;15.07;3.97;;;20.80;63.20;;;;;;5017427;28;20026;-71
2023/04/18 08:03:29;;;;;;;14.93;5.25;;;20.80;62.90;;;;;;5027591;28;20033;-71
2023/04/18 08:05:55;;;;;;;22.63;5.80;;;20.80;63.30;;;;;;5007264;28;20022;-71
2023/04/18 08:08:21;;;;;;;16.63;5.28;;;20.80;63.30;;;;;;5029602;28;20060;-72
2023/04/18 08:10:47;;;;;;;10.27;4.95;;;20.80;63.60;;;;;;5024155;28;20503;-72
2023/04/18 08:13:12;;;;;;;23.33;5.65;;;20.80;63.10;;;;;;5023938;28;20033;-71
2023/04/18 08:15:39;;;;;;;19.75;5.63;;;20.90;62.70;;;;;;5024491;28;20037;-71
2023/04/18 08:18:05;;;;;;;21.17;5.38;;;20.90;62.50;;;;;;5005892;28;20030;-70
2023/04/18 08:20:31;;;;;;;17.65;5.40;;;20.80;62.10;;;;;;5020874;28;20038;-71
2023/04/18 08:22:56;;;;;;;14.70;5.30;;;20.70;62.00;;;;;;5005491;28;20088;-70
2023/04/18 08:25:22;;;;;;;14.55;5.45;;;20.80;61.70;;;;;;5028360;28;20083;-71
2023/04/18 08:27:48;;;;;;;23.25;5.38;;;20.70;61.60;;;;;;5011315;28;20037;-71
2023/04/18 08:30:14;;;;;;;14.20;5.55;;;20.70;61.20;;;;;;5032112;28;20057;-71
2023/04/18 08:32:40;;;;;;;12.70;5.13;;;20.70;60.60;;;;;;5032059;28;20026;-71
2023/04/18 08:35:06;;;;;;;10.57;5.13;;;20.60;60.10;;;;;;5032172;28;20112;-71
2023/04/18 08:37:34;;;;;;;11.30;4.75;;;20.60;60.30;;;;;;5023670;28;20474;-71
2023/04/18 08:40:05;;;;;;;15.13;5.28;;;20.60;60.30;;;;;;5031540;28;20033;-71
2023/04/18 08:42:32;;;;;;;13.05;4.70;;;20.60;59.80;;;;;;5048687;28;20028;-76
2023/04/18 08:44:58;;;;;;;13.80;7.97;;;20.70;60.90;;;;;;5048633;28;20029;-75
2023/04/18 08:47:28;;;;;;;12.32;6.90;;;20.60;56.70;;;;;;5038396;28;20029;-72
2023/04/18 08:49:55;;;;;;;14.63;6.93;;;20.40;55.80;;;;;;5025679;28;20033;-72
2023/04/18 08:52:22;;;;;;;18.83;6.90;;;20.40;55.60;;;;;;5028839;28;20038;-71
2023/04/18 08:54:49;;;;;;;11.15;6.10;;;20.40;56.80;;;;;;5010065;28;20026;-71
2023/04/18 08:57:17;;;;;;;12.18;6.28;;;20.40;56.30;;;;;;5028259;28;20033;-72
2023/04/18 08:59:44;;;;;;;16.45;6.10;;;20.40;56.20;;;;;;5028997;28;20399;-71
2023/04/18 09:02:14;;;;;;;9.60;5.57;;;20.40;56.20;;;;;;5028275;28;20029;-71
2023/04/18 09:04:43;;;;;;;11.68;5.82;;;20.50;56.50;;;;;;5009840;28;20061;-71
2023/04/18 09:07:15;;;;;;;12.27;5.40;;;20.50;56.20;;;;;;5028725;28;20057;-71
2023/04/18 09:09:45;;;;;;;12.00;5.60;;;20.50;56.20;;;;;;5028691;28;20091;-71
2023/04/18 09:12:17;;;;;;;11.73;5.45;;;20.50;56.20;;;;;;5027899;28;20046;-72
2023/04/18 09:14:45;;;;;;;10.48;5.25;;;20.50;56.00;;;;;;5028132;28;20366;-71
2023/04/18 09:17:33;;;;;;;26.25;5.38;;;20.50;55.90;;;;;;5010161;28;20435;-71
2023/04/18 09:20:00;;;;;;;12.85;5.32;;;20.50;56.60;;;;;;5009664;28;20053;-72
2023/04/18 09:22:41;;;;;;;10.30;4.80;;;20.50;56.10;;;;;;4994064;28;20048;-72
2023/04/18 09:25:08;;;;;;;10.80;5.05;;;20.50;56.00;;;;;;5028060;28;20773;-71
2023/04/18 09:27:34;;;;;;;11.48;4.95;;;20.60;56.00;;;;;;5027572;28;20033;-72
2023/04/18 09:30:00;;;;;;;8.93;4.65;;;20.60;57.00;;;;;;4994048;28;20064;-72
2023/04/18 09:32:29;;;;;;;8.35;4.63;;;20.60;56.80;;;;;;5009991;28;20061;-71
2023/04/18 09:35:00;;;;;;;12.57;4.93;;;20.60;57.00;;;;;;4992853;28;20100;-72
2023/04/18 09:37:27;;;;;;;10.35;4.75;;;20.60;56.90;;;;;;5008178;28;20491;-72
2023/04/18 09:39:54;;;;;;;12.57;4.30;;;20.60;56.90;;;;;;5009291;28;20029;-71
2023/04/18 09:42:20;;;;;;;18.00;5.63;;;20.70;57.60;;;;;;5022475;28;20036;-72
2023/04/18 09:45:06;;;;;;;23.20;5.95;;;20.60;57.20;;;;;;5028882;28;20041;-71
2023/04/18 09:47:35;;;;;;;25.20;7.15;;;20.60;57.00;;;;;;5027736;28;20041;-70
2023/04/18 09:50:05;;;;;;;25.30;8.65;;;20.40;56.00;;;;;;5027472;28;20110;-71
2023/04/18 09:52:34;;;;;;;26.60;7.53;;;20.40;54.70;;;;;;5025404;28;20034;-70
2023/04/18 09:55:02;;;;;;;22.35;7.45;;;20.30;54.00;;;;;;5026873;28;20041;-71
2023/04/18 09:57:30;;;;;;;18.65;6.97;;;20.30;54.20;;;;;;5027653;28;20022;-71
2023/04/18 10:00:23;;;;;;;20.42;7.53;;;20.30;53.60;;;;;;5027239;28;20022;-71
2023/04/18 10:02:56;;;;;;;12.82;5.63;;;20.40;53.20;;;;;;5016710;28;20041;-71
2023/04/18 10:05:26;;;;;;;16.50;6.05;;;20.50;54.20;;;;;;5026817;28;20029;-71
2023/04/18 10:07:53;;;;;;;18.95;6.10;;;20.50;54.40;;;;;;5023982;28;20040;-71
2023/04/18 10:10:20;;;;;;;14.55;6.00;;;20.50;54.80;;;;;;4995104;28;20022;-71
2023/04/18 10:12:47;;;;;;;20.60;6.10;;;20.60;54.90;;;;;;5027669;28;20037;-71
2023/04/18 10:15:14;;;;;;;19.75;5.80;;;20.60;55.10;;;;;;4992603;28;20029;-71
2023/04/18 10:17:51;;;;;;;20.38;6.20;;;20.60;55.10;;;;;;5026825;28;20037;-71
2023/04/18 10:20:19;;;;;;;17.27;6.07;;;20.60;55.20;;;;;;5026941;28;20040;-71
2023/04/18 10:22:47;;;;;;;21.50;5.82;;;20.60;55.30;;;;;;5026642;28;20021;-72
2023/04/18 10:25:33;;;;;;;14.15;4.85;;;20.60;55.30;;;;;;5009305;28;20036;-71
2023/04/18 10:28:00;;;;;;;16.27;5.30;;;20.60;55.50;;;;;;5026239;28;20041;-71
2023/04/18 10:30:41;;;;;;;15.52;5.80;;;20.60;55.70;;;;;;5026559;28;20487;-71
2023/04/18 10:33:34;;;;;;;11.77;5.05;;;20.60;56.00;;;;;;5008926;28;20064;-71
2023/04/18 10:36:07;;;;;;;20.33;5.88;;;20.60;56.10;;;;;;4992974;28;20514;-71
2023/04/18 10:38:44;;;;;;;15.00;5.00;;;20.60;56.50;;;;;;5008469;28;20029;-71
2023/04/18 10:41:18;;;;;;;15.18;5.28;;;20.60;56.40;;;;;;5023847;28;20083;-71
2023/04/18 10:44:14;;;;;;;11.48;4.88;;;20.60;56.50;;;;;;5026293;28;20514;-72
2023/04/18 10:47:06;;;;;;;10.90;4.80;;;20.60;56.50;;;;;;5026116;28;20109;-72
2023/04/18 10:49:34;;;;;;;11.55;4.80;;;20.60;56.70;;;;;;5005416;28;20045;-72
2023/04/18 10:52:01;;;;;;;13.07;5.35;;;20.60;56.80;;;;;;5007483;28;20045;-71
2023/04/18 10:54:55;;;;;;;13.30;5.25;;;20.60;56.80;;;;;;5026172;28;20131;-72
2023/04/18 10:57:21;;;;;;;15.27;5.60;;;20.60;57.10;;;;;;5028775;28;20082;-72
2023/04/18 10:59:51;;;;;;;16.73;4.90;;;20.60;57.10;;;;;;5026284;28;20030;-74
2023/04/18 11:02:28;;;;;;;11.07;4.78;;;20.60;57.00;;;;;;4988474;28;20045;-71
2023/04/18 11:05:00;;;;;;;13.98;4.38;;;20.60;57.40;;;;;;5007951;28;20592;-71
2023/04/18 11:07:33;;;;;;;10.65;4.55;;;20.60;57.30;;;;;;5025076;28;20040;-70
2023/04/18 11:09:59;;;;;;;10.77;4.65;;;20.60;57.30;;;;;;5008704;28;20128;-70
2023/04/18 11:12:31;;;;;;;13.95;4.93;;;20.70;57.80;;;;;;5008239;28;20289;-70
2023/04/18 11:14:57;;;;;;;11.88;4.78;;;20.70;57.60;;;;;;5007309;28;20079;-71
2023/04/18 11:17:34;;;;;;;13.27;4.95;;;20.70;57.50;;;;;;5004500;28;20049;-72
2023/04/18 11:20:12;;;;;;;12.70;5.03;;;20.70;57.20;;;;;;5007226;28;20309;-71
2023/04/18 11:22:50;;;;;;;26.25;6.10;;;20.70;57.60;;;;;;5007777;28;20495;-71
2023/04/18 11:25:17;;;;;;;18.63;5.25;;;20.70;57.60;;;;;;5025665;28;20033;-71
2023/04/18 11:27:50;;;;;;;15.32;5.22;;;20.70;57.40;;;;;;5025934;28;20021;-71
2023/04/18 11:30:16;;;;;;;16.60;5.25;;;20.70;57.40;;;;;;5007338;28;20133;-71
2023/04/18 11:32:43;;;;;;;12.40;4.97;;;20.70;57.40;;;;;;5007906;28;20029;-71
2023/04/18 11:35:10;;;;;;;12.38;5.57;;;20.70;57.50;;;;;;5008380;28;20029;-71
2023/04/18 11:37:37;;;;;;;15.70;5.10;;;20.60;57.40;;;;;;5027265;28;20436;-71
2023/04/18 11:40:07;;;;;;;14.93;5.35;;;20.60;57.40;;;;;;5027020;28;20029;-71
2023/04/18 11:42:34;;;;;;;;;;;20.60;57.40;;;;;;5009451;28;20045;-71
2023/04/18 11:45:00;;;;;;;13.27;5.20;;;20.60;57.60;;;;;;5027351;28;20007;-71
2023/04/18 11:47:28;;;;;;;12.15;4.95;;;20.60;57.70;;;;;;5027415;28;20029;-71
2023/04/18 11:49:58;;;;;;;14.05;4.80;;;20.60;57.60;;;;;;5009387;28;20458;-71
2023/04/18 11:52:30;;;;;;;13.13;5.22;;;20.60;57.60;;;;;;5027522;28;20041;-71
2023/04/18 11:55:12;;;;;;;10.63;4.88;;;20.60;57.70;;;;;;5009447;28;20075;-71
2023/04/18 11:57:39;;;;;;;9.70;4.50;;;20.60;57.90;;;;;;5009614;28;20030;-71
2023/04/18 12:00:09;;;;;;;12.80;4.45;;;20.60;57.80;;;;;;5027339;28;20026;-71
2023/04/18 12:02:42;;;;;;;15.32;5.32;;;20.60;57.60;;;;;;5010609;28;20036;-71
2023/04/18 12:05:09;;;;;;;12.77;5.05;;;20.60;57.80;;;;;;5031191;28;20057;-71
2023/04/18 12:07:39;;;;;;;9.52;4.80;;;20.60;57.80;;;;;;5031195;28;20029;-71
2023/04/18 12:10:24;;;;;;;;;;;20.60;57.70;;;;;;5031629;28;20053;-71
2023/04/18 12:12:54;;;;;;;12.38;4.78;;;20.60;57.80;;;;;;5031184;28;19913;-71
2023/04/18 12:15:22;;;;;;;12.45;5.40;;;20.60;57.80;;;;;;5031025;28;20044;-71
2023/04/18 12:17:50;;;;;;;11.02;4.57;;;20.60;57.80;;;;;;5031074;28;20083;-71
2023/04/18 12:20:17;;;;;;;11.43;4.97;;;20.60;57.90;;;;;;5013297;28;20091;-71
2023/04/18 12:22:46;;;;;;;10.70;4.78;;;20.60;57.70;;;;;;5030849;28;20029;-71
2023/04/18 12:25:22;;;;;;;11.38;4.72;;;20.60;57.60;;;;;;5030598;28;20025;-70
2023/04/18 12:27:59;;;;;;;12.98;5.50;;;20.60;57.80;;;;;;5013323;28;20211;-70
2023/04/18 12:30:33;;;;;;;12.25;5.68;;;20.60;57.60;;;;;;5030869;28;20049;-71
2023/04/18 12:33:00;;;;;;;17.20;5.60;;;20.60;57.80;;;;;;5030486;28;20026;-71
2023/04/18 12:35:27;;;;;;;20.15;6.47;;;20.60;57.80;;;;;;5030471;28;20500;-70
2023/04/18 12:37:55;;;;;;;13.25;5.90;;;20.60;58.30;;;;;;5030137;28;20460;-70
2023/04/18 12:40:22;;;;;;;13.23;6.07;;;20.60;57.70;;;;;;5030689;28;20034;-71
2023/04/18 12:42:49;;;;;;;19.25;6.47;;;20.50;57.20;;;;;;5030707;28;20079;-73
2023/04/18 12:45:16;;;;;;;13.75;7.25;;;20.50;56.60;;;;;;5012459;28;20607;-74
2023/04/18 12:47:44;;;;;;;19.15;6.70;;;20.50;56.10;;;;;;5012922;28;20418;-73
2023/04/18 12:50:14;;;;;;;13.32;7.47;;;20.40;56.00;;;;;;5030178;28;20513;-73